createdAt,value
2019-02-15T08:52:06.362Z,5.35
2019-02-15T09:17:18.638Z,3.62
2019-02-15T09:22:26.813Z,13.55
2019-02-15T09:24:56.353Z,13.60
2019-02-15T09:27:39.296Z,14.75
2019-02-15T09:30:10.711Z,14.43
2019-02-15T09:32:40.770Z,15.53
2019-02-15T09:35:10.901Z,16.35
2019-02-15T09:37:40.596Z,16.52
2019-02-15T09:40:10.767Z,16.62
2019-02-15T09:42:40.212Z,17.42
2019-02-15T09:45:11.561Z,15.58
2019-02-15T09:47:40.956Z,15.43
2019-02-15T09:50:12.308Z,16.27
2019-02-15T09:52:41.906Z,16.62
2019-02-15T09:55:11.263Z,17.80
2019-02-15T09:57:40.634Z,17.57
2019-02-15T10:00:10.258Z,16.97
2019-02-15T10:02:39.827Z,15.58
2019-02-15T10:05:09.199Z,17.20
2019-02-15T10:07:38.795Z,17.87
2019-02-15T10:10:08.515Z,18.35
2019-02-15T10:12:38.053Z,17.95
2019-02-15T10:15:07.935Z,17.57
2019-02-15T10:17:37.312Z,17.67
2019-02-15T10:20:07.194Z,18.65
2019-02-15T10:22:36.654Z,18.37
2019-02-15T10:25:08.965Z,19.62
2019-02-15T10:27:38.399Z,17.20
2019-02-15T10:30:08.495Z,18.10
2019-02-15T10:32:37.992Z,18.40
2019-02-15T10:35:09.551Z,19.23
2019-02-15T10:37:38.950Z,17.87
2019-02-15T10:40:08.701Z,18.73
2019-02-15T10:42:38.428Z,18.67
2019-02-15T10:45:14.108Z,18.02
2019-02-15T10:47:43.498Z,16.95
2019-02-15T10:50:12.957Z,18.52
2019-02-15T10:52:42.563Z,16.55
2019-02-15T10:55:13.026Z,16.42
2019-02-15T10:57:42.379Z,17.07
2019-02-15T11:00:16.804Z,16.32
2019-02-15T11:02:47.016Z,16.87
2019-02-15T11:05:17.625Z,17.48
2019-02-15T11:07:47.155Z,17.30
2019-02-15T11:10:16.576Z,16.75
2019-02-15T11:12:46.055Z,15.55
2019-02-15T11:15:15.592Z,15.80
2019-02-15T11:17:44.950Z,16.30
2019-02-15T11:20:15.436Z,15.63
2019-02-15T11:22:45.044Z,15.65
2019-02-15T11:25:14.776Z,18.48
2019-02-15T11:27:44.726Z,17.02
2019-02-15T11:30:14.753Z,18.40
2019-02-15T11:32:44.151Z,16.40
2019-02-15T11:35:17.124Z,16.62
2019-02-15T11:37:46.545Z,14.87
2019-02-15T11:40:16.422Z,16.35
2019-02-15T11:42:46.140Z,15.72
2019-02-15T11:45:15.615Z,13.85
2019-02-15T11:47:45.166Z,13.85
2019-02-15T11:50:14.803Z,12.23
2019-02-15T11:52:44.265Z,12.37
2019-02-15T11:55:13.942Z,12.53
2019-02-15T11:57:43.369Z,11.97
2019-02-15T12:00:18.470Z,11.28
2019-02-15T12:02:47.694Z,10.80
2019-02-15T12:05:17.506Z,11.85
2019-02-15T12:07:47.145Z,10.85
2019-02-15T12:10:16.895Z,11.48
2019-02-15T12:12:46.349Z,12.05
2019-02-15T12:15:15.921Z,11.57
2019-02-15T12:17:45.708Z,12.25
2019-02-15T12:20:15.267Z,9.08
2019-02-15T12:22:44.864Z,10.93
2019-02-15T12:25:14.490Z,10.90
2019-02-15T12:27:44.325Z,9.93
2019-02-15T12:30:14.008Z,9.65
2019-02-15T12:32:43.428Z,9.80
2019-02-15T12:35:13.524Z,9.80
2019-02-15T12:37:43.136Z,10.53
2019-02-15T12:40:13.549Z,9.40
2019-02-15T12:42:43.164Z,11.38
2019-02-15T12:45:12.933Z,10.98
2019-02-15T12:47:42.520Z,11.48
2019-02-15T12:50:13.737Z,10.90
2019-02-15T12:52:43.160Z,11.20
2019-02-15T15:19:37.364Z,10.72
2019-02-15T15:43:37.392Z,9.40
2019-02-15T15:46:07.247Z,10.20
2019-02-15T15:48:36.886Z,10.80
2019-02-15T15:51:06.665Z,10.15
2019-02-15T15:53:36.040Z,10.70
2019-02-15T15:56:05.470Z,11.80
2019-02-15T15:58:35.114Z,11.20
2019-02-15T16:01:05.108Z,10.53
2019-02-15T16:03:34.837Z,11.43
2019-02-15T16:06:04.381Z,12.28
2019-02-15T16:08:34.082Z,8.38
2019-02-15T16:11:06.082Z,8.83
2019-02-15T16:13:35.429Z,8.15
2019-02-15T16:16:04.816Z,8.30
2019-02-15T16:18:35.144Z,7.60
2019-02-15T16:21:04.897Z,5.92
2019-02-15T16:23:34.272Z,7.97
2019-02-15T16:26:03.823Z,12.88
2019-02-15T16:28:34.284Z,12.53
2019-02-15T16:31:03.813Z,10.58
2019-02-15T16:33:34.346Z,9.88
2019-02-15T16:36:04.042Z,10.10
2019-02-15T16:38:33.822Z,9.38
2019-02-15T16:41:03.707Z,10.70
2019-02-15T16:43:33.352Z,10.48
2019-02-15T16:46:03.343Z,9.83
2019-02-15T16:48:41.717Z,10.40
2019-02-15T18:14:55.570Z,13.20
2019-02-15T18:17:25.208Z,15.25
2019-02-15T18:19:54.915Z,12.98
2019-02-15T18:22:24.986Z,11.93
2019-02-15T18:24:54.818Z,11.78
2019-02-15T18:27:24.499Z,13.48
2019-02-15T18:29:54.353Z,13.15
2019-02-15T18:32:23.911Z,12.75
2019-02-15T18:34:53.669Z,12.40
2019-02-15T18:37:23.203Z,12.00
2019-02-15T18:39:53.232Z,10.93
2019-02-15T18:42:23.520Z,10.78
2019-02-15T18:44:53.745Z,11.45
2019-02-15T18:47:23.159Z,10.48
2019-02-15T18:49:52.549Z,10.48
2019-02-15T18:52:22.343Z,10.48
2019-02-15T18:54:54.516Z,10.65
2019-02-15T18:57:24.240Z,10.78
2019-02-15T18:59:54.921Z,9.98
2019-02-15T19:02:24.353Z,11.20
2019-02-15T19:04:55.235Z,11.15
2019-02-15T19:07:25.246Z,9.73
2019-02-15T19:09:55.281Z,9.90
2019-02-15T19:12:25.036Z,9.60
2019-02-15T19:14:55.456Z,10.55
2019-02-15T19:17:25.416Z,10.38
2019-02-15T19:19:55.056Z,10.08
2019-02-15T19:22:24.989Z,11.22
2019-02-15T19:24:55.087Z,10.38
2019-02-15T19:27:25.039Z,10.93
2019-02-15T19:29:54.647Z,10.78
2019-02-15T19:32:24.859Z,11.10
2019-02-15T19:34:54.932Z,11.85
2019-02-15T19:37:24.788Z,11.70
2019-02-15T19:39:54.730Z,12.60
2019-02-15T19:42:24.750Z,12.63
2019-02-15T19:44:54.763Z,11.80
2019-02-15T19:47:24.801Z,11.95
2019-02-15T19:49:54.737Z,12.15
2019-02-15T19:52:25.087Z,12.47
2019-02-15T19:54:55.061Z,12.18
2019-02-15T19:57:24.881Z,12.85
2019-02-15T19:59:54.963Z,13.55
2019-02-15T20:02:24.778Z,12.45
2019-02-15T20:04:54.602Z,11.33
2019-02-15T20:07:26.322Z,12.13
2019-02-15T20:09:56.095Z,11.88
2019-02-15T20:12:25.963Z,12.18
2019-02-15T20:14:56.197Z,11.25
2019-02-15T20:17:26.452Z,11.85
2019-02-15T20:19:56.284Z,11.68
2019-02-15T20:22:26.114Z,12.00
2019-02-15T20:24:55.816Z,14.38
2019-02-15T20:27:25.492Z,14.07
2019-02-15T20:29:56.956Z,15.65
2019-02-15T20:32:26.428Z,15.98
2019-02-15T20:34:56.351Z,15.23
2019-02-15T20:37:26.020Z,13.62
2019-02-15T20:39:55.959Z,13.83
2019-02-15T20:42:25.888Z,12.20
2019-02-15T20:44:55.676Z,13.32
2019-02-15T20:47:25.859Z,12.45
2019-02-15T20:49:58.157Z,13.58
2019-02-15T20:52:27.211Z,12.75
2019-02-15T20:54:57.161Z,12.37
2019-02-15T20:57:26.985Z,13.10
2019-02-15T20:59:56.790Z,14.13
2019-02-15T21:02:26.636Z,13.25
2019-02-15T21:04:56.410Z,13.30
2019-02-15T21:07:26.208Z,12.80
2019-02-15T21:09:56.011Z,13.28
2019-02-15T21:12:28.507Z,12.20
2019-02-15T21:14:58.672Z,12.95
2019-02-15T21:17:28.880Z,14.55
2019-02-15T21:20:06.989Z,13.90
2019-02-15T21:22:30.264Z,12.95
2019-02-15T21:24:59.964Z,14.55
2019-02-15T21:27:29.886Z,14.95
2019-02-15T21:30:00.275Z,13.45
2019-02-15T21:32:30.291Z,12.43
2019-02-15T21:35:00.483Z,13.28
2019-02-15T21:37:30.620Z,13.68
2019-02-15T21:40:00.610Z,12.98
2019-02-15T21:42:30.383Z,12.13
2019-02-15T21:45:00.641Z,11.97
2019-02-15T21:47:30.519Z,12.93
2019-02-15T21:50:01.661Z,12.80
2019-02-15T21:52:31.383Z,12.82
2019-02-15T21:55:02.119Z,12.28
2019-02-15T21:57:32.475Z,12.70
2019-02-15T22:00:02.750Z,12.13
2019-02-15T22:02:32.564Z,11.50
2019-02-15T22:05:02.309Z,11.18
2019-02-15T22:07:35.559Z,10.72
2019-02-15T22:10:08.749Z,10.60
2019-02-15T22:12:40.739Z,10.82
2019-02-15T22:15:11.471Z,11.43
2019-02-15T22:17:41.266Z,11.70
2019-02-15T22:20:13.868Z,10.50
2019-02-15T22:22:46.494Z,11.18
2019-02-15T22:25:20.659Z,10.32
2019-02-15T22:27:53.100Z,10.40
2019-02-15T22:30:23.297Z,11.15
2019-02-15T22:32:52.836Z,10.13
2019-02-15T22:35:22.597Z,9.50
2019-02-15T22:37:53.177Z,9.50
2019-02-15T22:40:39.803Z,9.68
2019-02-15T22:43:18.050Z,9.68
2019-02-15T22:45:47.892Z,10.10
2019-02-15T22:48:18.072Z,10.65
2019-02-15T22:50:47.564Z,9.83
2019-02-15T22:53:17.157Z,10.95
2019-02-15T22:55:46.828Z,10.45
2019-02-15T22:58:17.729Z,10.85
2019-02-15T23:01:16.633Z,11.43
2019-02-15T23:03:46.230Z,10.30
2019-02-15T23:06:17.456Z,11.12
2019-02-15T23:08:47.011Z,10.28
2019-02-15T23:11:16.420Z,10.72
2019-02-15T23:13:45.899Z,10.40
2019-02-15T23:16:15.871Z,10.32
2019-02-15T23:18:46.681Z,11.05
2019-02-15T23:21:17.366Z,10.45
2019-02-15T23:23:47.273Z,11.53
2019-02-15T23:26:19.252Z,10.60
2019-02-15T23:28:52.221Z,11.28
2019-02-15T23:31:21.672Z,11.55
2019-02-15T23:33:52.504Z,10.75
2019-02-15T23:36:22.152Z,10.45
2019-02-15T23:38:52.150Z,10.50
2019-02-15T23:41:21.921Z,10.82
2019-02-15T23:43:52.107Z,12.15
2019-02-15T23:46:21.712Z,11.00
2019-02-15T23:48:51.426Z,10.30
2019-02-15T23:51:21.176Z,10.30
2019-02-15T23:53:50.740Z,11.65
2019-02-15T23:56:20.469Z,11.93
2019-02-15T23:58:50.025Z,10.38
